Terminal Aerodrome Forecast
Issued by NWS Duluth, MN

Home | Current Version | Previous Version | Text Only | Print | Product List | Glossary On
Versions: 1 2 3 4 5 6 7 8 9 10 11 12 13 14 15 16 17 18 19 20 21
000
FTUS43 KDLH 282103 AAA
TAFINL
TAF AMD
KINL 282103Z 2821/2918 25005KT P6SM VCSH FEW040 BKN250
      TEMPO 2822/2902 3SM TSRA BKN020CB OVC040
     FM290200 21003KT P6SM SCT040
     FM290900 26002KT 6SM BR SKC
      TEMPO 2909/2913 3SM BR SCT008
     FM291300 19002KT P6SM SKC=

USA.gov is the U.S. government's official web portal to all federal, state and local government web resources and services.